Terminal Aerodrome Forecast
Issued by NWS Goodland, KS

Home | Current Version | Previous Version | Text Only | Print | Product List | Glossary On
Versions: 1 2 3 4 5 6 7 8 9 10 11 12 13 14 15 16 17
000
FTUS43 KGLD 180254 AAB
TAFGLD
TAF AMD
KGLD 180254Z 1803/1824 16011KT P6SM OVC008
     FM180900 20008KT P6SM OVC004
     FM181300 24006KT P6SM OVC005
     FM181500 30008KT P6SM SCT005
     FM181800 35007KT P6SM SKC
     FM182000 VRB05KT P6SM FEW050=

USA.gov is the U.S. government's official web portal to all federal, state and local government web resources and services.